Time;durP1;ratioP1;P1;durP2;ratioP2;P2;SDS_P1;SDS_P2;PMS_P1;PMS_P2;Temp;Humidity;BMP_temperature;BMP_pressure;BME280_temperature;BME280_humidity;BME280_pressure;Samples;Min_cycle;Max_cycle;Signal;HPM_P1;HPM_P2
2021/12/22 00:01:36;;;;;;;44.33;15.73;;;;;;;;;;5070115;28;20145;-63
2021/12/22 00:04:02;;;;;;;57.55;15.32;;;;;;;;;;5071246;28;20025;-63
2021/12/22 00:06:31;;;;;;;75.43;15.82;;;;;;;;;;5064224;28;20432;-63
2021/12/22 00:08:58;;;;;;;68.68;15.30;;;;;;;;;;5065654;28;20055;-63
2021/12/22 00:11:23;;;;;;;82.50;15.88;;;;;;;;;;5069480;28;20047;-63
2021/12/22 00:13:48;;;;;;;68.95;16.35;;;;;;;;;;5066073;28;20545;-63
2021/12/22 00:16:14;;;;;;;86.53;16.13;;;;;;;;;;5062322;28;20082;-63
2021/12/22 00:18:39;;;;;;;43.67;15.07;;;;;;;;;;5069598;28;20039;-63
2021/12/22 00:21:05;;;;;;;62.17;15.57;;;;;;;;;;5069011;28;20588;-63
2021/12/22 00:23:30;;;;;;;82.88;16.17;;;;;;;;;;5066876;28;20040;-63
2021/12/22 00:25:56;;;;;;;66.75;15.50;;;;;;;;;;5069495;28;20032;-63
2021/12/22 00:28:22;;;;;;;37.95;13.95;;;;;;;;;;5070719;28;20025;-63
2021/12/22 00:30:50;;;;;;;41.33;14.25;;;;;;;;;;5069097;28;20424;-63
2021/12/22 00:33:15;;;;;;;48.70;13.65;;;;;;;;;;5069339;28;20033;-63
2021/12/22 00:35:44;;;;;;;39.72;13.88;;;;;;;;;;5066460;28;20044;-63
2021/12/22 00:38:13;;;;;;;56.65;14.02;;;;;;;;;;5070085;28;20024;-63
2021/12/22 00:40:39;;;;;;;49.47;13.57;;;;;;;;;;5069337;28;20028;-63
2021/12/22 00:43:05;;;;;;;39.35;13.32;;;;;;;;;;5067475;28;20386;-63
2021/12/22 00:45:33;;;;;;;40.38;13.38;;;;;;;;;;5067428;28;20037;-63
2021/12/22 00:47:59;;;;;;;46.65;14.23;;;;;;;;;;5070521;28;20044;-63
2021/12/22 00:50:25;;;;;;;45.65;14.20;;;;;;;;;;5065633;28;20094;-63
2021/12/22 00:52:51;;;;;;;47.95;14.63;;;;;;;;;;5066784;28;20029;-63
2021/12/22 00:55:19;;;;;;;41.25;14.15;;;;;;;;;;5069775;28;20036;-62
2021/12/22 00:57:49;;;;;;;56.58;13.77;;;;;;;;;;5068268;28;20474;-62
2021/12/22 01:00:16;;;;;;;41.75;12.95;;;;;;;;;;5069154;28;20028;-62
2021/12/22 01:02:43;;;;;;;62.10;13.25;;;;;;;;;;5067319;28;20056;-62
2021/12/22 01:05:12;;;;;;;50.10;13.52;;;;;;;;;;5069288;28;20104;-63
2021/12/22 01:07:42;;;;;;;34.95;13.57;;;;;;;;;;5066412;28;20090;-62
2021/12/22 01:10:08;;;;;;;38.75;13.23;;;;;;;;;;5069238;28;20071;-62
2021/12/22 01:12:34;;;;;;;43.58;13.52;;;;;;;;;;5073012;28;20047;-63
2021/12/22 01:14:59;;;;;;;41.42;13.63;;;;;;;;;;5071665;28;20029;-62
2021/12/22 01:17:25;;;;;;;68.75;14.95;;;;;;;;;;5071673;28;20056;-63
2021/12/22 01:20:07;;;;;;;39.42;13.18;;;;;;;;;;5071624;28;20101;-62
2021/12/22 01:25:04;;;;;;;37.08;13.32;;;;;;;;;;5071951;28;20060;-63
2021/12/22 01:27:35;;;;;;;38.05;12.45;;;;;;;;;;5073766;28;20389;-63
2021/12/22 01:30:06;;;;;;;39.13;12.13;;;;;;;;;;5070306;28;20051;-63
2021/12/22 01:32:32;;;;;;;31.15;11.48;;;;;;;;;;5073516;28;20120;-63
2021/12/22 01:34:57;;;;;;;35.65;12.90;;;;;;;;;;5071721;28;20111;-63
2021/12/22 01:37:23;;;;;;;31.95;12.40;;;;;;;;;;5071181;28;20040;-63
2021/12/22 01:39:48;;;;;;;34.17;13.20;;;;;;;;;;5072539;28;20028;-63
2021/12/22 01:42:14;;;;;;;31.92;12.65;;;;;;;;;;5071452;28;20036;-62
2021/12/22 01:45:31;;;;;;;28.70;12.10;;;;;;;;;;5072344;28;20465;-63
2021/12/22 01:50:40;;;;;;;25.98;11.65;;;;;;;;;;5072928;28;20503;-63
2021/12/22 01:53:25;;;;;;;31.00;12.70;;;;;;;;;;5073020;28;20838;-63
2021/12/22 01:58:43;;;;;;;33.33;12.93;;;;;;;;;;5072152;28;20066;-63
2021/12/22 02:01:10;;;;;;;37.50;13.20;;;;;;;;;;5071986;28;20497;-63
2021/12/22 02:03:37;;;;;;;40.05;14.20;;;;;;;;;;5069571;28;20032;-63
2021/12/22 02:06:04;;;;;;;38.20;14.05;;;;;;;;;;5068224;28;20446;-62
2021/12/22 02:08:30;;;;;;;42.08;15.25;;;;;;;;;;5066012;28;20032;-62
2021/12/22 02:10:55;;;;;;;45.47;14.98;;;;;;;;;;5071973;28;20044;-62
2021/12/22 02:13:22;;;;;;;40.90;14.07;;;;;;;;;;5072192;28;20044;-62
2021/12/22 02:15:48;;;;;;;34.30;13.63;;;;;;;;;;5070179;28;20033;-62
2021/12/22 02:18:18;;;;;;;36.78;14.68;;;;;;;;;;5067094;28;20046;-63
2021/12/22 02:20:46;;;;;;;48.85;16.20;;;;;;;;;;5070650;28;20024;-63
2021/12/22 02:23:11;;;;;;;47.90;15.52;;;;;;;;;;5070173;28;20052;-62
2021/12/22 02:25:45;;;;;;;40.72;15.20;;;;;;;;;;5071239;28;20121;-63
2021/12/22 02:28:21;;;;;;;47.63;16.15;;;;;;;;;;5068150;28;20036;-63
2021/12/22 02:30:47;;;;;;;45.35;15.40;;;;;;;;;;5071361;28;20441;-63
2021/12/22 02:33:33;;;;;;;42.67;15.35;;;;;;;;;;5068589;28;20063;-63
2021/12/22 02:38:39;;;;;;;50.92;14.85;;;;;;;;;;5067355;28;20036;-62
2021/12/22 02:41:08;;;;;;;35.65;13.10;;;;;;;;;;5064424;28;20060;-62
2021/12/22 02:43:42;;;;;;;46.47;14.60;;;;;;;;;;5072336;28;20458;-63
2021/12/22 02:46:07;;;;;;;39.55;14.05;;;;;;;;;;5070596;28;20033;-63
2021/12/22 02:48:33;;;;;;;40.95;14.70;;;;;;;;;;5071750;28;20039;-63
2021/12/22 02:51:01;;;;;;;42.35;14.25;;;;;;;;;;5068654;28;20036;-63
2021/12/22 02:53:38;;;;;;;37.78;14.38;;;;;;;;;;5072122;28;20063;-63
2021/12/22 02:56:16;;;;;;;44.20;14.95;;;;;;;;;;5068932;28;20025;-63
2021/12/22 03:06:04;;;;;;;36.97;14.75;;;;;;;;;;5069280;28;20234;-63
2021/12/22 03:08:29;;;;;;;41.55;14.63;;;;;;;;;;5071111;28;20055;-63
2021/12/22 03:10:55;;;;;;;42.28;15.18;;;;;;;;;;5070528;28;20102;-62
2021/12/22 03:13:22;;;;;;;40.47;14.75;;;;;;;;;;5072115;28;20040;-62
2021/12/22 03:15:47;;;;;;;44.42;15.50;;;;;;;;;;5066781;28;20597;-62
2021/12/22 03:18:13;;;;;;;45.30;16.20;;;;;;;;;;5071279;28;20107;-62
2021/12/22 03:20:38;;;;;;;50.88;17.55;;;;;;;;;;5069897;28;20119;-62
2021/12/22 03:23:04;;;;;;;50.80;16.52;;;;;;;;;;5071063;28;20039;-63
2021/12/22 03:25:30;;;;;;;55.33;17.05;;;;;;;;;;5071864;28;20063;-63
2021/12/22 03:28:01;;;;;;;63.05;17.05;;;;;;;;;;5070057;28;20135;-63
2021/12/22 03:30:26;;;;;;;77.95;17.55;;;;;;;;;;5070385;28;20101;-62
2021/12/22 03:32:52;;;;;;;57.33;17.23;;;;;;;;;;5069432;28;20462;-63
2021/12/22 03:35:18;;;;;;;49.38;15.73;;;;;;;;;;5069262;28;20058;-64
2021/12/22 03:37:46;;;;;;;58.25;17.75;;;;;;;;;;5066715;28;20051;-62
2021/12/22 03:40:12;;;;;;;55.65;16.35;;;;;;;;;;5069897;28;20035;-63
2021/12/22 03:42:37;;;;;;;69.47;18.48;;;;;;;;;;5068659;28;20040;-62
2021/12/22 03:45:04;;;;;;;72.03;17.48;;;;;;;;;;5068493;28;20044;-62
2021/12/22 03:47:29;;;;;;;64.47;17.65;;;;;;;;;;5070874;28;20478;-62
2021/12/22 03:49:55;;;;;;;63.55;18.35;;;;;;;;;;5060060;28;20039;-63
2021/12/22 03:52:20;;;;;;;66.05;17.92;;;;;;;;;;5064765;28;20024;-62
2021/12/22 03:54:45;;;;;;;59.50;17.45;;;;;;;;;;5066524;28;20102;-63
2021/12/22 03:57:11;;;;;;;73.28;17.85;;;;;;;;;;5069175;28;20056;-63
2021/12/22 03:59:36;;;;;;;54.53;16.23;;;;;;;;;;5066708;28;20033;-63
2021/12/22 04:02:03;;;;;;;54.83;17.40;;;;;;;;;;5067707;28;20623;-63
2021/12/22 04:04:28;;;;;;;54.58;16.60;;;;;;;;;;5068026;28;20075;-62
2021/12/22 04:06:54;;;;;;;50.33;15.93;;;;;;;;;;5066761;28;20438;-63
2021/12/22 04:09:26;;;;;;;63.55;16.13;;;;;;;;;;5069549;28;20032;-62
2021/12/22 04:11:52;;;;;;;46.85;15.55;;;;;;;;;;5069594;28;20068;-62
2021/12/22 04:14:17;;;;;;;51.45;15.65;;;;;;;;;;5066824;28;20084;-62
2021/12/22 04:16:42;;;;;;;34.47;13.07;;;;;;;;;;5070727;28;20029;-62
2021/12/22 04:19:08;;;;;;;36.97;13.55;;;;;;;;;;5068504;28;20111;-63
2021/12/22 04:21:33;;;;;;;39.40;14.05;;;;;;;;;;5067635;28;20036;-63
2021/12/22 04:24:00;;;;;;;36.22;13.27;;;;;;;;;;5056874;28;20094;-62
2021/12/22 04:26:27;;;;;;;38.72;14.18;;;;;;;;;;5069680;28;20497;-63
2021/12/22 04:28:53;;;;;;;38.05;13.68;;;;;;;;;;5069678;28;20024;-63
2021/12/22 04:31:19;;;;;;;46.03;14.65;;;;;;;;;;5068090;28;20115;-63
2021/12/22 04:33:44;;;;;;;39.20;13.55;;;;;;;;;;5069759;28;20036;-63
2021/12/22 04:36:09;;;;;;;33.42;13.32;;;;;;;;;;5061428;28;20117;-63
2021/12/22 04:38:35;;;;;;;38.85;13.68;;;;;;;;;;5054557;28;20025;-63
2021/12/22 04:41:00;;;;;;;41.30;14.70;;;;;;;;;;5055363;28;20028;-63
2021/12/22 04:43:26;;;;;;;42.03;14.55;;;;;;;;;;5070913;28;20499;-63
2021/12/22 04:45:51;;;;;;;37.80;13.77;;;;;;;;;;5066178;28;20035;-63
2021/12/22 04:48:17;;;;;;;34.95;13.13;;;;;;;;;;5071009;28;20482;-62
2021/12/22 04:50:42;;;;;;;37.33;12.90;;;;;;;;;;5067814;28;20060;-62
2021/12/22 04:53:13;;;;;;;41.92;13.95;;;;;;;;;;5067784;28;20028;-62
2021/12/22 04:55:38;;;;;;;37.10;13.73;;;;;;;;;;5067701;28;20082;-62
2021/12/22 04:58:04;;;;;;;39.85;14.02;;;;;;;;;;5069406;28;20032;-62
2021/12/22 05:00:33;;;;;;;36.10;13.45;;;;;;;;;;5068392;28;20043;-62
2021/12/22 05:02:59;;;;;;;37.50;13.90;;;;;;;;;;5067943;28;20094;-63
2021/12/22 05:05:25;;;;;;;43.42;13.95;;;;;;;;;;5059050;28;20049;-62
2021/12/22 05:07:51;;;;;;;39.65;13.40;;;;;;;;;;5062504;28;20036;-62
2021/12/22 05:10:17;;;;;;;35.13;13.23;;;;;;;;;;5069332;28;20420;-62
2021/12/22 05:12:44;;;;;;;40.85;13.57;;;;;;;;;;5070866;28;20076;-63
2021/12/22 05:15:10;;;;;;;38.85;13.15;;;;;;;;;;5070565;28;20059;-63
2021/12/22 05:20:12;;;;;;;48.97;13.05;;;;;;;;;;5070661;28;20028;-63
2021/12/22 05:22:37;;;;;;;33.38;11.98;;;;;;;;;;5069278;28;20038;-63
2021/12/22 05:25:04;;;;;;;33.88;12.27;;;;;;;;;;5069947;28;20032;-63
2021/12/22 05:27:30;;;;;;;32.65;11.68;;;;;;;;;;5070324;28;20444;-63
2021/12/22 05:29:56;;;;;;;35.55;12.38;;;;;;;;;;5069892;28;20032;-63
2021/12/22 05:32:25;;;;;;;38.08;12.98;;;;;;;;;;5081215;28;20060;-63
2021/12/22 05:34:52;;;;;;;30.10;12.38;;;;;;;;;;5070463;28;20036;-63
2021/12/22 05:37:18;;;;;;;35.55;12.68;;;;;;;;;;5065695;28;20116;-63
2021/12/22 05:39:43;;;;;;;29.85;11.40;;;;;;;;;;5067833;28;20123;-62
2021/12/22 05:42:08;;;;;;;34.50;12.35;;;;;;;;;;5068496;28;20063;-62
2021/12/22 05:44:34;;;;;;;29.88;12.10;;;;;;;;;;5070991;28;20028;-62
2021/12/22 05:46:59;;;;;;;41.72;13.13;;;;;;;;;;5069988;28;20032;-62
2021/12/22 05:49:25;;;;;;;35.55;13.02;;;;;;;;;;5069464;28;20029;-62
2021/12/22 05:51:50;;;;;;;34.90;13.13;;;;;;;;;;5070284;28;20363;-62
2021/12/22 05:54:15;;;;;;;37.28;13.00;;;;;;;;;;5067536;28;20035;-63
2021/12/22 05:56:41;;;;;;;39.75;12.70;;;;;;;;;;5071847;28;20039;-62
2021/12/22 05:59:06;;;;;;;38.13;13.23;;;;;;;;;;5073111;28;20029;-62
2021/12/22 06:01:32;;;;;;;41.13;12.98;;;;;;;;;;5072143;28;20401;-61
2021/12/22 06:03:59;;;;;;;43.03;14.30;;;;;;;;;;5073167;28;20060;-63
2021/12/22 06:06:26;;;;;;;44.33;15.07;;;;;;;;;;5074278;28;20029;-62
2021/12/22 06:08:51;;;;;;;55.78;15.35;;;;;;;;;;5073766;28;20029;-62
2021/12/22 06:11:17;;;;;;;47.95;14.32;;;;;;;;;;5072873;28;20094;-62
2021/12/22 06:13:42;;;;;;;45.25;15.07;;;;;;;;;;5065741;28;20110;-62
2021/12/22 06:16:09;;;;;;;48.47;15.20;;;;;;;;;;5057298;28;20076;-62
2021/12/22 06:18:41;;;;;;;49.22;15.65;;;;;;;;;;5054583;28;20036;-63
2021/12/22 06:21:06;;;;;;;53.35;15.63;;;;;;;;;;5053579;28;20375;-62
2021/12/22 06:23:32;;;;;;;44.15;14.75;;;;;;;;;;5054073;28;20455;-62
2021/12/22 06:25:57;;;;;;;52.33;15.80;;;;;;;;;;5053126;28;20104;-62
2021/12/22 06:28:22;;;;;;;45.22;14.52;;;;;;;;;;5054442;28;20094;-62
2021/12/22 06:30:48;;;;;;;55.42;14.93;;;;;;;;;;5056157;28;20036;-65
2021/12/22 06:33:13;;;;;;;51.30;14.82;;;;;;;;;;5052686;28;20509;-62
2021/12/22 06:35:39;;;;;;;47.50;15.77;;;;;;;;;;5053591;28;20032;-63
2021/12/22 06:38:04;;;;;;;49.38;15.32;;;;;;;;;;5064370;28;20036;-67
2021/12/22 06:40:29;;;;;;;52.15;15.88;;;;;;;;;;5062028;28;20059;-68
2021/12/22 06:42:55;;;;;;;44.55;14.32;;;;;;;;;;5063873;28;20025;-68
2021/12/22 06:45:22;;;;;;;43.25;14.32;;;;;;;;;;5062545;28;20035;-62
2021/12/22 06:47:48;;;;;;;44.03;14.27;;;;;;;;;;5069965;28;20032;-63
2021/12/22 06:50:14;;;;;;;40.03;13.43;;;;;;;;;;5083197;28;20039;-61
2021/12/22 06:52:39;;;;;;;38.75;13.70;;;;;;;;;;5071139;28;20428;-62
2021/12/22 06:55:05;;;;;;;43.60;13.32;;;;;;;;;;5071929;28;20467;-62
2021/12/22 06:57:32;;;;;;;42.13;14.68;;;;;;;;;;5071836;28;20112;-62
2021/12/22 06:59:58;;;;;;;40.75;13.48;;;;;;;;;;5072681;28;20025;-63
2021/12/22 07:02:25;;;;;;;39.42;13.43;;;;;;;;;;5073358;28;20421;-64
2021/12/22 07:04:51;;;;;;;36.50;13.38;;;;;;;;;;5066931;28;20021;-64
2021/12/22 07:07:16;;;;;;;40.35;14.00;;;;;;;;;;5053607;28;20251;-64
2021/12/22 07:09:42;;;;;;;36.67;14.30;;;;;;;;;;5054861;28;20343;-63
2021/12/22 07:12:10;;;;;;;41.95;14.95;;;;;;;;;;5053749;28;20115;-63
2021/12/22 07:14:36;;;;;;;36.63;14.10;;;;;;;;;;5053671;28;20047;-63
2021/12/22 07:17:01;;;;;;;39.22;14.68;;;;;;;;;;5052148;28;20490;-68
2021/12/22 07:19:27;;;;;;;44.95;15.38;;;;;;;;;;5054285;28;20024;-63
2021/12/22 07:21:54;;;;;;;39.53;14.50;;;;;;;;;;5053066;28;20041;-64
2021/12/22 07:24:20;;;;;;;38.40;13.60;;;;;;;;;;5052848;28;20108;-63
2021/12/22 07:26:46;;;;;;;38.28;13.35;;;;;;;;;;5053091;28;20057;-62
2021/12/22 07:29:12;;;;;;;37.17;13.85;;;;;;;;;;5053402;28;20662;-63
2021/12/22 07:31:38;;;;;;;40.72;14.93;;;;;;;;;;5053123;28;20465;-63
2021/12/22 07:34:11;;;;;;;34.35;13.50;;;;;;;;;;5051957;28;20053;-63
2021/12/22 07:36:50;;;;;;;40.35;13.98;;;;;;;;;;5052589;28;20043;-62
2021/12/22 07:39:15;;;;;;;37.80;13.25;;;;;;;;;;5050830;28;20102;-63
2021/12/22 07:41:41;;;;;;;33.17;12.95;;;;;;;;;;5051326;28;20029;-63
2021/12/22 07:44:07;;;;;;;31.67;12.40;;;;;;;;;;5053511;28;20474;-63
2021/12/22 07:46:33;;;;;;;35.63;13.10;;;;;;;;;;5052846;28;20044;-62
2021/12/22 07:48:58;;;;;;;36.17;14.25;;;;;;;;;;5051799;28;20474;-63
2021/12/22 07:51:23;;;;;;;31.55;12.27;;;;;;;;;;5055976;28;20371;-63
2021/12/22 07:53:49;;;;;;;36.92;13.85;;;;;;;;;;5053539;28;20036;-63
2021/12/22 07:56:15;;;;;;;31.73;13.10;;;;;;;;;;5050204;28;20531;-63
2021/12/22 07:58:40;;;;;;;39.05;13.50;;;;;;;;;;5052371;28;20051;-63
2021/12/22 08:01:06;;;;;;;28.55;12.02;;;;;;;;;;5051461;28;20455;-64
2021/12/22 08:03:31;;;;;;;34.28;12.57;;;;;;;;;;5051868;28;20503;-63
2021/12/22 08:05:56;;;;;;;31.45;13.00;;;;;;;;;;5053533;28;20028;-64
2021/12/22 08:08:22;;;;;;;29.00;12.18;;;;;;;;;;5052254;28;20025;-63
2021/12/22 08:10:47;;;;;;;29.08;11.65;;;;;;;;;;5050462;28;20040;-63
2021/12/22 08:13:15;;;;;;;33.45;11.63;;;;;;;;;;5050244;28;20041;-64
2021/12/22 08:15:41;;;;;;;32.55;11.63;;;;;;;;;;5051964;28;20033;-62
2021/12/22 08:18:07;;;;;;;37.85;12.77;;;;;;;;;;5033635;28;20490;-63
2021/12/22 08:20:32;;;;;;;35.47;12.35;;;;;;;;;;5052062;28;20020;-63
2021/12/22 08:22:58;;;;;;;34.95;13.18;;;;;;;;;;5050835;28;20059;-64
2021/12/22 08:25:23;;;;;;;36.42;13.77;;;;;;;;;;5051436;28;20112;-63
2021/12/22 08:27:49;;;;;;;41.97;13.65;;;;;;;;;;5050701;28;20071;-63
2021/12/22 08:30:15;;;;;;;41.38;14.68;;;;;;;;;;5049720;28;20349;-63
2021/12/22 08:32:40;;;;;;;40.67;14.45;;;;;;;;;;5051030;28;20048;-62
2021/12/22 08:35:08;;;;;;;43.33;14.30;;;;;;;;;;5050705;28;20501;-63
2021/12/22 08:40:20;;;;;;;47.78;14.30;;;;;;;;;;5050548;28;20117;-63
2021/12/22 08:42:46;;;;;;;35.22;12.85;;;;;;;;;;5051525;28;20060;-62
2021/12/22 08:45:13;;;;;;;45.33;13.23;;;;;;;;;;5049578;28;20090;-63
2021/12/22 08:47:39;;;;;;;43.33;14.52;;;;;;;;;;5051837;28;20029;-63
2021/12/22 08:50:08;;;;;;;44.42;13.85;;;;;;;;;;5049768;28;20144;-63
2021/12/22 08:52:33;;;;;;;41.75;14.07;;;;;;;;;;5053345;28;20115;-63
2021/12/22 08:54:59;;;;;;;35.83;14.10;;;;;;;;;;5050907;28;20445;-65
2021/12/22 08:57:24;;;;;;;39.05;14.02;;;;;;;;;;5050973;28;20033;-63
2021/12/22 08:59:50;;;;;;;48.35;13.63;;;;;;;;;;5063102;28;20079;-63
2021/12/22 09:02:16;;;;;;;48.63;14.98;;;;;;;;;;5070330;28;20028;-63
2021/12/22 09:04:41;;;;;;;41.15;14.25;;;;;;;;;;5069946;28;20025;-63
2021/12/22 09:07:07;;;;;;;45.13;15.82;;;;;;;;;;5058416;28;20043;-63
2021/12/22 09:09:32;;;;;;;45.47;14.85;;;;;;;;;;5051174;28;20116;-62
2021/12/22 09:11:58;;;;;;;47.25;14.88;;;;;;;;;;5070402;28;20035;-65
2021/12/22 09:14:24;;;;;;;42.30;14.30;;;;;;;;;;5069151;28;20087;-63
2021/12/22 09:16:51;;;;;;;49.60;15.25;;;;;;;;;;5070727;28;20041;-63
2021/12/22 09:19:16;;;;;;;44.70;14.65;;;;;;;;;;5069990;28;20047;-63
2021/12/22 09:21:42;;;;;;;47.08;14.23;;;;;;;;;;5060907;28;20029;-64
2021/12/22 09:24:08;;;;;;;50.30;15.43;;;;;;;;;;5052090;28;20037;-63
2021/12/22 09:26:35;;;;;;;41.03;15.18;;;;;;;;;;5070055;28;20035;-63
2021/12/22 09:29:00;;;;;;;47.40;15.25;;;;;;;;;;5070450;28;20507;-65
2021/12/22 09:31:26;;;;;;;47.22;15.38;;;;;;;;;;5069957;28;20037;-63
2021/12/22 09:33:52;;;;;;;48.80;15.02;;;;;;;;;;5075057;28;20044;-63
2021/12/22 09:36:19;;;;;;;43.42;15.57;;;;;;;;;;5068267;28;20036;-63
2021/12/22 09:38:44;;;;;;;53.78;15.68;;;;;;;;;;5061753;28;20028;-62
2021/12/22 09:41:11;;;;;;;47.20;14.60;;;;;;;;;;5073890;28;20036;-63
2021/12/22 09:43:37;;;;;;;46.90;15.38;;;;;;;;;;5061994;28;20028;-63
2021/12/22 09:46:08;;;;;;;48.40;15.57;;;;;;;;;;5073856;28;20105;-66
2021/12/22 09:53:30;;;;;;;56.65;15.73;;;;;;;;;;5054655;28;20086;-62
2021/12/22 09:55:58;;;;;;;48.30;15.25;;;;;;;;;;5053105;28;20114;-63
2021/12/22 09:58:24;;;;;;;57.08;16.13;;;;;;;;;;5052599;28;20037;-63
2021/12/22 10:00:51;;;;;;;52.83;16.08;;;;;;;;;;5054576;28;20387;-63
2021/12/22 10:03:17;;;;;;;47.70;15.93;;;;;;;;;;5063812;28;20040;-62
2021/12/22 10:05:44;;;;;;;49.90;16.15;;;;;;;;;;5070472;28;20035;-63
2021/12/22 10:08:22;;;;;;;44.47;15.32;;;;;;;;;;5053337;28;20035;-64
2021/12/22 10:10:51;;;;;;;52.38;16.30;;;;;;;;;;5072466;28;20508;-64
2021/12/22 10:13:19;;;;;;;54.08;17.52;;;;;;;;;;5073244;28;20076;-63
2021/12/22 10:15:47;;;;;;;46.65;16.33;;;;;;;;;;5074393;28;20032;-63
2021/12/22 10:18:16;;;;;;;50.92;16.98;;;;;;;;;;5073008;28;20040;-63
2021/12/22 10:20:45;;;;;;;48.95;15.93;;;;;;;;;;5061030;28;20036;-63
2021/12/22 10:23:24;;;;;;;51.05;16.45;;;;;;;;;;5051889;28;20086;-63
2021/12/22 10:25:54;;;;;;;48.30;16.55;;;;;;;;;;5053516;28;20033;-63
2021/12/22 10:28:21;;;;;;;45.45;15.38;;;;;;;;;;5052874;28;20402;-63
2021/12/22 10:30:48;;;;;;;47.50;16.67;;;;;;;;;;5058690;28;20040;-63
2021/12/22 10:33:22;;;;;;;43.10;15.88;;;;;;;;;;5056000;28;20536;-63
2021/12/22 10:35:51;;;;;;;48.50;17.10;;;;;;;;;;5072086;28;20029;-63
2021/12/22 10:38:22;;;;;;;45.80;17.52;;;;;;;;;;5080378;28;20478;-63
2021/12/22 10:40:50;;;;;;;41.70;16.70;;;;;;;;;;5073557;28;20024;-63
2021/12/22 10:43:25;;;;;;;41.58;18.98;;;;;;;;;;5066609;28;20036;-66
2021/12/22 10:45:55;;;;;;;50.85;20.15;;;;;;;;;;5056825;28;20650;-65
2021/12/22 10:51:27;;;;;;;44.38;19.15;;;;;;;;;;5071634;28;20093;-66
2021/12/22 10:53:53;;;;;;;41.95;19.63;;;;;;;;;;5074002;28;20052;-66
2021/12/22 10:56:39;;;;;;;43.42;18.48;;;;;;;;;;5072640;28;20036;-65
2021/12/22 10:59:06;;;;;;;41.03;17.05;;;;;;;;;;5064794;28;20025;-72
2021/12/22 11:01:34;;;;;;;42.38;16.52;;;;;;;;;;5066429;28;20103;-67
2021/12/22 11:04:02;;;;;;;38.40;15.88;;;;;;;;;;5072550;28;20052;-70
2021/12/22 11:06:30;;;;;;;35.83;15.30;;;;;;;;;;5071854;28;20293;-66
2021/12/22 11:09:10;;;;;;;36.33;16.67;;;;;;;;;;5073170;28;20123;-67
2021/12/22 11:11:40;;;;;;;40.78;17.05;;;;;;;;;;5073305;28;20381;-65
2021/12/22 11:14:19;;;;;;;31.92;15.02;;;;;;;;;;5069021;28;20094;-70
2021/12/22 11:17:01;;;;;;;33.05;15.50;;;;;;;;;;5059333;28;20107;-64
2021/12/22 11:19:29;;;;;;;36.95;15.27;;;;;;;;;;5055681;28;20035;-64
2021/12/22 11:22:05;;;;;;;34.58;14.70;;;;;;;;;;5070082;28;20055;-65
2021/12/22 11:24:35;;;;;;;36.92;15.15;;;;;;;;;;5071792;28;20032;-66
2021/12/22 11:27:01;;;;;;;35.60;14.90;;;;;;;;;;5072943;28;20028;-65
2021/12/22 11:29:27;;;;;;;32.35;14.48;;;;;;;;;;5072490;28;20029;-65
2021/12/22 11:31:53;;;;;;;31.17;14.07;;;;;;;;;;5071006;28;20037;-65
2021/12/22 11:34:21;;;;;;;35.25;15.43;;;;;;;;;;5070864;28;20036;-66
2021/12/22 11:36:47;;;;;;;35.25;15.00;;;;;;;;;;5072224;28;20111;-64
2021/12/22 11:39:13;;;;;;;29.13;14.02;;;;;;;;;;5071436;28;20024;-65
2021/12/22 11:41:44;;;;;;;33.05;14.70;;;;;;;;;;5071304;28;20039;-65
2021/12/22 11:44:10;;;;;;;35.08;14.82;;;;;;;;;;5072474;28;20040;-68
2021/12/22 11:46:37;;;;;;;28.77;13.90;;;;;;;;;;5073188;28;20085;-65
2021/12/22 11:49:03;;;;;;;30.67;13.35;;;;;;;;;;5073917;28;20077;-65
2021/12/22 11:51:31;;;;;;;33.60;13.32;;;;;;;;;;5072816;28;20468;-66
2021/12/22 11:54:15;;;;;;;27.55;12.27;;;;;;;;;;5071888;28;20040;-67
2021/12/22 11:56:47;;;;;;;23.35;12.00;;;;;;;;;;5072505;28;20036;-66
2021/12/22 11:59:33;;;;;;;24.05;11.35;;;;;;;;;;5069668;28;20090;-66
2021/12/22 12:02:25;;;;;;;17.88;9.98;;;;;;;;;;5071847;28;20028;-65
2021/12/22 12:05:17;;;;;;;19.70;10.50;;;;;;;;;;5056439;28;20397;-65
2021/12/22 12:07:51;;;;;;;19.40;9.98;;;;;;;;;;5051962;28;20033;-64
2021/12/22 12:10:34;;;;;;;19.88;11.35;;;;;;;;;;5057131;28;20035;-65
2021/12/22 12:13:09;;;;;;;20.00;10.73;;;;;;;;;;5071661;28;20535;-65
2021/12/22 12:21:39;;;;;;;22.17;10.95;;;;;;;;;;5070001;28;20044;-65
2021/12/22 12:21:54;;;;;;;17.88;11.07;;;;;;;;;;5071387;28;20470;-66
2021/12/22 12:24:33;;;;;;;19.60;11.25;;;;;;;;;;5070534;28;20032;-66
2021/12/22 12:27:22;;;;;;;19.30;11.45;;;;;;;;;;5070181;28;20127;-65
2021/12/22 12:30:07;;;;;;;22.17;11.02;;;;;;;;;;5071713;28;20082;-66
2021/12/22 12:32:39;;;;;;;17.63;11.00;;;;;;;;;;5070863;28;20656;-66
2021/12/22 12:35:20;;;;;;;20.67;11.13;;;;;;;;;;5069911;28;20044;-65
2021/12/22 12:38:12;;;;;;;20.48;11.25;;;;;;;;;;5054535;28;20036;-68
2021/12/22 12:41:02;;;;;;;23.77;11.93;;;;;;;;;;5061350;28;20119;-66
2021/12/22 12:43:40;;;;;;;25.48;11.75;;;;;;;;;;5069235;28;20474;-67
2021/12/22 12:48:51;;;;;;;20.00;11.80;;;;;;;;;;5053553;28;20467;-67
2021/12/22 12:51:26;;;;;;;19.63;11.50;;;;;;;;;;5050491;28;20029;-68
2021/12/22 12:53:54;;;;;;;19.58;11.82;;;;;;;;;;5059071;28;20044;-66
2021/12/22 12:56:23;;;;;;;21.38;11.50;;;;;;;;;;5065356;28;20033;-68
2021/12/22 12:58:56;;;;;;;21.63;12.23;;;;;;;;;;5071492;28;20478;-69
2021/12/22 13:01:46;;;;;;;22.98;12.30;;;;;;;;;;5070189;28;20036;-63
2021/12/22 13:04:36;;;;;;;18.67;11.70;;;;;;;;;;5068360;28;20489;-74
2021/12/22 13:07:11;;;;;;;24.83;12.30;;;;;;;;;;5068113;28;20047;-63
2021/12/22 13:09:40;;;;;;;20.17;11.50;;;;;;;;;;5076803;28;20082;-64
2021/12/22 13:17:22;;;;;;;21.73;12.20;;;;;;;;;;5068085;28;20044;-64
2021/12/22 13:19:50;;;;;;;21.95;11.82;;;;;;;;;;5074981;28;20437;-63
2021/12/22 13:22:36;;;;;;;24.63;12.63;;;;;;;;;;5073960;28;20020;-67
2021/12/22 13:25:19;;;;;;;21.55;12.20;;;;;;;;;;5075087;28;20020;-64
2021/12/22 13:27:53;;;;;;;20.15;12.18;;;;;;;;;;5075647;28;20470;-64
2021/12/22 13:30:21;;;;;;;21.02;12.00;;;;;;;;;;5074497;28;20036;-64
2021/12/22 13:33:10;;;;;;;21.98;12.20;;;;;;;;;;5060221;28;20083;-64
2021/12/22 13:35:35;;;;;;;21.75;12.30;;;;;;;;;;5052982;28;20136;-63
2021/12/22 13:38:23;;;;;;;22.92;12.93;;;;;;;;;;5085139;28;20123;-65
2021/12/22 13:40:58;;;;;;;20.23;12.38;;;;;;;;;;5054978;28;20043;-64
2021/12/22 13:43:32;;;;;;;19.27;11.15;;;;;;;;;;5052545;28;20057;-64
2021/12/22 13:46:21;;;;;;;18.13;10.48;;;;;;;;;;5054319;28;20111;-64
2021/12/22 13:48:56;;;;;;;20.60;11.32;;;;;;;;;;5054067;28;20029;-64
2021/12/22 13:51:40;;;;;;;20.70;10.40;;;;;;;;;;5054686;28;20040;-64
2021/12/22 13:54:29;;;;;;;17.40;10.05;;;;;;;;;;5058657;28;20029;-64
2021/12/22 13:57:05;;;;;;;19.58;10.80;;;;;;;;;;5055130;28;20033;-64
2021/12/22 13:59:34;;;;;;;17.15;10.48;;;;;;;;;;5053144;28;20044;-64
2021/12/22 14:02:02;;;;;;;19.13;9.80;;;;;;;;;;5054930;28;20025;-64
2021/12/22 14:04:35;;;;;;;17.58;10.18;;;;;;;;;;5053085;28;20378;-64
2021/12/22 14:07:07;;;;;;;16.70;10.07;;;;;;;;;;5055003;28;20045;-63
2021/12/22 14:09:39;;;;;;;17.50;10.65;;;;;;;;;;5057168;28;20033;-63
2021/12/22 14:12:10;;;;;;;21.35;10.18;;;;;;;;;;5055031;28;20032;-63
2021/12/22 14:14:42;;;;;;;19.58;11.10;;;;;;;;;;5054117;28;20029;-63
2021/12/22 14:17:09;;;;;;;17.27;10.82;;;;;;;;;;5069912;28;20040;-64
2021/12/22 14:19:56;;;;;;;18.80;11.02;;;;;;;;;;5053988;28;20175;-64
2021/12/22 14:22:25;;;;;;;18.67;10.80;;;;;;;;;;5053918;28;20355;-64
2021/12/22 14:24:59;;;;;;;21.63;11.68;;;;;;;;;;5057499;28;20036;-63
2021/12/22 14:27:54;;;;;;;20.85;11.45;;;;;;;;;;5053545;28;20536;-64
2021/12/22 14:30:35;;;;;;;18.83;10.90;;;;;;;;;;5052936;28;20040;-64
2021/12/22 14:33:04;;;;;;;19.33;11.18;;;;;;;;;;5054446;28;20052;-63
2021/12/22 14:35:38;;;;;;;19.00;11.38;;;;;;;;;;5053271;28;20334;-63
2021/12/22 14:38:09;;;;;;;17.92;10.88;;;;;;;;;;5055905;28;20044;-63
2021/12/22 14:40:38;;;;;;;19.10;11.45;;;;;;;;;;5065958;28;20041;-64
2021/12/22 14:43:08;;;;;;;19.65;10.93;;;;;;;;;;5072145;28;20367;-63
2021/12/22 14:45:35;;;;;;;21.30;11.10;;;;;;;;;;5072905;28;20040;-63
2021/12/22 14:48:14;;;;;;;22.52;11.07;;;;;;;;;;5073758;28;20040;-63
2021/12/22 14:50:53;;;;;;;21.13;10.70;;;;;;;;;;5069332;28;20043;-63
2021/12/22 14:53:27;;;;;;;19.48;10.65;;;;;;;;;;5071450;28;20155;-65
2021/12/22 14:55:56;;;;;;;20.92;10.95;;;;;;;;;;5070094;28;20051;-64
2021/12/22 14:58:22;;;;;;;16.63;10.43;;;;;;;;;;5053310;28;20025;-63
2021/12/22 15:00:49;;;;;;;17.55;10.40;;;;;;;;;;5069498;28;20331;-63
2021/12/22 15:03:15;;;;;;;21.88;11.18;;;;;;;;;;5072733;28;20032;-62
2021/12/22 15:05:49;;;;;;;19.20;11.45;;;;;;;;;;5071969;28;20024;-63
2021/12/22 15:08:15;;;;;;;19.85;11.15;;;;;;;;;;5071484;28;20037;-63
2021/12/22 15:10:40;;;;;;;22.88;11.80;;;;;;;;;;5054895;28;20569;-63